Terminal Aerodrome Forecast
Issued by NWS

Home | Current Version | Previous Version | Text Only | Print | Product List | Glossary On
Versions: 1 2 3 4 5 6 7 8 9 10 11 12 13 14 15 16 17 18 19 20 21 22 23
000
FTUS45 KPSR 252300
TAFSDL
TAF
KSDL 252320Z 2600/2624 VRB04KT P6SM SCT180 BKN250
     FM261200 VRB03KT P6SM SCT100 BKN150 OVC200
     FM262200 VRB05KT P6SM VCSH SCT070 BKN100 OVC140=

USA.gov is the U.S. government's official web portal to all federal, state and local government web resources and services.